This is the latest recevied weather packets stored in our database for station/object KI4FRU. If no packets are shown the sender has not sent any weather packets the latest 10 day(s).
| Time | Temp. | Humidity | Pressure | Rain* | Wind** | Luminosity | Snow |
|---|---|---|---|---|---|---|---|
| 1777919296 | 28.89° C | 42% | 1054.2 hPa | 0 mm | - | 191 W/m² | - |
| 1777918993 | 30° C | 40% | 1054 hPa | 0 mm | - | 76 W/m² | - |
| 1777918690 | 28.89° C | 40% | 1054.4 hPa | 0 mm | - | 83 W/m² | - |
| 1777918388 | 28.89° C | 44% | 1054.3 hPa | 0 mm | - | 95 W/m² | - |
| 1777918087 | 27.78° C | 41% | 1054.5 hPa | 0 mm | - | 185 W/m² | - |
| 1777917785 | 27.78° C | 43% | 1054.4 hPa | 0 mm | - | 166 W/m² | - |
| 1777917482 | 25.56° C | 48% | 1054.4 hPa | 0 mm | - | 699 W/m² | - |
| 1777917179 | 26.11° C | 42% | 1054.6 hPa | 0 mm | - | 632 W/m² | - |
| 1777916877 | 25.56° C | 44% | 1054.4 hPa | 0 mm | - | 736 W/m² | - |
| 1777916574 | 25.56° C | 43% | 1054.5 hPa | 0 mm | - | 744 W/m² | - |
| 1777916270 | 26.11° C | 45% | 1054.7 hPa | 0 mm | - | 354 W/m² | - |
| 1777915968 | 25.56° C | 45% | 1054.7 hPa | 0 mm | - | 719 W/m² | - |
| 1777915664 | 26.11° C | 42% | 1054.7 hPa | 0 mm | - | 351 W/m² | - |
| 1777915361 | 25.56° C | 48% | 1054.9 hPa | 0 mm | - | 739 W/m² | - |
| 1777915057 | 25.56° C | 44% | 1054.8 hPa | 0 mm | - | 635 W/m² | - |
| 1777914754 | 26.11° C | 49% | 1054.9 hPa | 0 mm | - | 75 W/m² | - |
| 1777914451 | 24.44° C | 45% | 1055.1 hPa | 0 mm | - | 752 W/m² | - |
| 1777914149 | 25° C | 46% | 1055 hPa | 0 mm | - | 746 W/m² | - |
| 1777913845 | 25.56° C | 46% | 1055.1 hPa | 0 mm | - | 83 W/m² | - |
| 1777913541 | 24.44° C | 43% | 1055.2 hPa | 0 mm | - | 478 W/m² | - |
| 1777913238 | 24.44° C | 46% | 1055.4 hPa | 0 mm | - | 661 W/m² | - |
| 1777912935 | 24.44° C | 46% | 1055.4 hPa | 0 mm | - | 666 W/m² | - |
| 1777912631 | 25.56° C | 47% | 1055.5 hPa | 0 mm | - | 728 W/m² | - |
| 1777912327 | 25.56° C | 45% | 1055.3 hPa | 0 mm | - | 105 W/m² | - |
| 1777912023 | 23.89° C | 47% | 1055.5 hPa | 0 mm | - | 728 W/m² | - |
* Rain latest hour (hover to see other rain measurements)
** Current wind speed in m/s (hover to see current wind gust speed)